Time;durP1;ratioP1;P1;durP2;ratioP2;P2;SDS_P1;SDS_P2;PMS_P1;PMS_P2;Temp;Humidity;BMP_temperature;BMP_pressure;BME280_temperature;BME280_humidity;BME280_pressure;Samples;Min_cycle;Max_cycle;Signal;HPM_P1;HPM_P2
2022/04/22 00:01:29;;;;;;;;;;;9.10;99.90;;;;;;5016621;28;19983;-72
2022/04/22 00:03:55;;;;;;;;;;;9.10;99.90;;;;;;5019951;28;19936;-72
2022/04/22 00:06:21;;;;;;;;;;;9.00;99.90;;;;;;5020482;28;20294;-72
2022/04/22 00:08:46;;;;;;;;;;;9.00;99.90;;;;;;5016351;28;19920;-71
2022/04/22 00:11:30;;;;;;;;;;;9.00;99.90;;;;;;5016443;28;20370;-71
2022/04/22 00:13:59;;;;;;;;;;;8.90;99.90;;;;;;5019737;28;19913;-72
2022/04/22 00:16:28;;;;;;;;;;;8.90;99.90;;;;;;5013882;28;20290;-71
2022/04/22 00:18:54;;;;;;;;;;;8.90;99.90;;;;;;5017698;28;20310;-71
2022/04/22 00:21:19;;;;;;;;;;;8.90;99.90;;;;;;5018580;28;20487;-71
2022/04/22 00:23:45;;;;;;;;;;;8.80;99.90;;;;;;5018049;28;19917;-71
2022/04/22 00:26:11;;;;;;;;;;;8.80;99.90;;;;;;5018750;28;20060;-72
2022/04/22 00:28:37;;;;;;;;;;;8.80;99.90;;;;;;5018156;28;19959;-71
2022/04/22 00:31:02;;;;;;;;;;;8.80;99.90;;;;;;5016691;28;20004;-71
2022/04/22 00:33:28;;;;;;;;;;;8.80;99.90;;;;;;5016574;28;19931;-71
2022/04/22 00:35:53;;;;;;;;;;;8.90;99.90;;;;;;5018393;28;20304;-72
2022/04/22 00:38:18;;;;;;;;;;;8.90;99.90;;;;;;5018460;28;19923;-71
2022/04/22 00:40:44;;;;;;;;;;;8.90;99.90;;;;;;5019268;28;20286;-71
2022/04/22 00:43:16;;;;;;;;;;;8.90;99.90;;;;;;5018282;28;20377;-72
2022/04/22 00:45:42;;;;;;;;;;;8.90;99.90;;;;;;5018789;28;20282;-71
2022/04/22 00:48:07;;;;;;;;;;;8.80;99.90;;;;;;5018553;28;19995;-72
2022/04/22 00:50:33;;;;;;;;;;;8.80;99.90;;;;;;5018716;28;19917;-71
2022/04/22 00:52:59;;;;;;;;;;;8.80;99.90;;;;;;5016789;28;20011;-72
2022/04/22 00:55:24;;;;;;;;;;;8.70;99.90;;;;;;5017677;28;19913;-71
2022/04/22 00:57:50;;;;;;;;;;;8.70;99.90;;;;;;5019365;28;20374;-71
2022/04/22 01:00:16;;;;;;;;;;;8.70;99.90;;;;;;5016160;28;20362;-72
2022/04/22 01:02:41;;;;;;;;;;;8.60;99.90;;;;;;5016294;28;19967;-72
2022/04/22 01:10:36;;;;;;;;;;;8.50;99.90;;;;;;5016373;28;19963;-71
2022/04/22 01:13:01;;;;;;;;;;;8.50;99.90;;;;;;5018889;28;20394;-71
2022/04/22 01:15:26;;;;;;;;;;;8.50;99.90;;;;;;5017722;28;19948;-71
2022/04/22 01:17:52;;;;;;;;;;;8.40;99.90;;;;;;5019363;28;20009;-71
2022/04/22 01:20:18;;;;;;;;;;;8.50;99.90;;;;;;5017660;28;19960;-71
2022/04/22 01:22:44;;;;;;;;;;;8.50;99.90;;;;;;5018308;28;19966;-71
2022/04/22 01:25:09;;;;;;;;;;;8.50;99.90;;;;;;5016343;28;20352;-71
2022/04/22 01:27:34;;;;;;;;;;;8.50;99.90;;;;;;5018680;28;19920;-71
2022/04/22 01:30:01;;;;;;;;;;;8.50;99.90;;;;;;5016550;28;19928;-71
2022/04/22 01:32:29;;;;;;;;;;;8.50;99.90;;;;;;5017707;28;20430;-71
2022/04/22 01:34:55;;;;;;;;;;;8.50;99.90;;;;;;5017079;28;19925;-71
2022/04/22 01:37:20;;;;;;;;;;;8.60;99.90;;;;;;5017571;28;20014;-71
2022/04/22 01:39:46;;;;;;;;;;;8.60;99.90;;;;;;5017141;28;19917;-71
2022/04/22 01:42:11;;;;;;;;;;;8.60;99.90;;;;;;5014826;28;19909;-71
2022/04/22 01:44:37;;;;;;;;;;;8.60;99.90;;;;;;5018990;28;19957;-71
2022/04/22 01:47:03;;;;;;;;;;;8.60;99.90;;;;;;5017784;28;19917;-71
2022/04/22 01:49:28;;;;;;;;;;;8.60;99.90;;;;;;5017696;28;19913;-71
2022/04/22 01:51:54;;;;;;;;;;;8.60;99.90;;;;;;5016069;28;19917;-71
2022/04/22 01:54:19;;;;;;;;;;;8.60;99.90;;;;;;5018097;28;19917;-71
2022/04/22 01:56:45;;;;;;;;;;;8.60;99.90;;;;;;5018200;28;20000;-71
2022/04/22 01:59:10;;;;;;;;;;;8.60;99.90;;;;;;5017189;28;19918;-71
2022/04/22 02:01:36;;;;;;;;;;;8.60;99.90;;;;;;4999553;28;20362;-72
2022/04/22 02:04:01;;;;;;;;;;;8.60;99.90;;;;;;5018813;28;19917;-72
2022/04/22 02:06:28;;;;;;;;;;;8.60;99.90;;;;;;5015888;28;19917;-72
2022/04/22 02:08:53;;;;;;;;;;;8.60;99.90;;;;;;5016688;28;20349;-71
2022/04/22 02:11:19;;;;;;;;;;;8.60;99.90;;;;;;5016813;28;19921;-72
2022/04/22 02:13:44;;;;;;;;;;;8.60;99.90;;;;;;5017182;28;19913;-72
2022/04/22 02:16:09;;;;;;;;;;;8.60;99.90;;;;;;5017180;28;20310;-71
2022/04/22 02:18:37;;;;;;;;;;;8.60;99.90;;;;;;5017834;28;19918;-72
2022/04/22 02:21:03;;;;;;;;;;;8.70;99.90;;;;;;5016816;28;19913;-72
2022/04/22 02:23:29;;;;;;;;;;;8.70;99.90;;;;;;5016535;28;20353;-71
2022/04/22 02:25:54;;;;;;;;;;;8.70;99.90;;;;;;5015881;28;19964;-71
2022/04/22 02:28:32;;;;;;;;;;;8.70;99.90;;;;;;5018852;28;19949;-72
2022/04/22 02:31:01;;;;;;;;;;;8.70;99.90;;;;;;5015385;28;20438;-71
2022/04/22 02:33:27;;;;;;;;;;;8.60;99.90;;;;;;5018888;28;19917;-71
2022/04/22 02:35:53;;;;;;;;;;;8.60;99.90;;;;;;5017786;28;19993;-71
2022/04/22 02:38:18;;;;;;;;;;;8.60;99.90;;;;;;5016964;28;19924;-71
2022/04/22 02:46:12;;;;;;;;;;;8.60;99.90;;;;;;5015987;28;19919;-71
2022/04/22 02:48:37;;;;;;;;;;;8.60;99.90;;;;;;5019152;28;19917;-71
2022/04/22 02:51:03;;;;;;;;;;;8.60;99.90;;;;;;5018107;28;19920;-71
2022/04/22 02:53:28;;;;;;;;;;;8.60;99.90;;;;;;5014974;28;20058;-71
2022/04/22 02:55:54;;;;;;;;;;;8.60;99.90;;;;;;5015648;28;20329;-71
2022/04/22 02:58:19;;;;;;;;;;;8.60;99.90;;;;;;5015816;28;20370;-71
2022/04/22 03:00:45;;;;;;;;;;;8.60;99.90;;;;;;5013952;28;20468;-71
2022/04/22 03:03:11;;;;;;;;;;;8.60;99.90;;;;;;5015167;28;19964;-71
2022/04/22 03:05:37;;;;;;;;;;;8.50;99.90;;;;;;5018124;28;19913;-71
2022/04/22 03:08:02;;;;;;;;;;;8.50;99.90;;;;;;5016254;28;20428;-71
2022/04/22 03:10:28;;;;;;;;;;;8.40;99.90;;;;;;5019369;28;20017;-71
2022/04/22 03:12:53;;;;;;;;;;;8.50;99.90;;;;;;5020500;28;19949;-71
2022/04/22 03:15:18;;;;;;;;;;;8.40;99.90;;;;;;5018569;28;19920;-71
2022/04/22 03:17:44;;;;;;;;;;;8.40;99.90;;;;;;5020533;28;20288;-71
2022/04/22 03:20:10;;;;;;;;;;;8.30;99.90;;;;;;5021699;28;19952;-70
2022/04/22 03:22:36;;;;;;;;;;;8.20;99.90;;;;;;5020104;28;19943;-70
2022/04/22 03:25:02;;;;;;;;;;;8.20;99.90;;;;;;5020247;28;20386;-71
2022/04/22 03:27:27;;;;;;;;;;;8.20;99.90;;;;;;5021269;28;19917;-71
2022/04/22 03:29:53;;;;;;;;;;;8.20;99.90;;;;;;5018624;28;19913;-72
2022/04/22 03:32:18;;;;;;;;;;;8.10;99.90;;;;;;5019724;28;19918;-71
2022/04/22 03:34:44;;;;;;;;;;;8.10;99.90;;;;;;5022118;28;19920;-71
2022/04/22 03:37:09;;;;;;;;;;;8.10;99.90;;;;;;5022498;28;19944;-71
2022/04/22 03:39:34;;;;;;;;;;;8.00;99.90;;;;;;5020642;28;19913;-72
2022/04/22 03:42:00;;;;;;;;;;;8.00;99.90;;;;;;5017686;28;21561;-71
2022/04/22 03:44:26;;;;;;;;;;;7.90;99.90;;;;;;5019033;28;19921;-71
2022/04/22 03:46:52;;;;;;;;;;;7.90;99.90;;;;;;5020844;28;20337;-71
2022/04/22 03:49:17;;;;;;;;;;;7.80;99.90;;;;;;5020692;28;19914;-71
2022/04/22 03:51:43;;;;;;;;;;;7.80;99.90;;;;;;5019001;28;19936;-71
2022/04/22 03:54:08;;;;;;;;;;;7.80;99.90;;;;;;5020628;28;19913;-71
2022/04/22 03:59:18;;;;;;;;;;;7.70;99.90;;;;;;5020983;28;19979;-71
2022/04/22 04:01:44;;;;;;;;;;;7.70;99.90;;;;;;5012895;28;19917;-71
2022/04/22 04:04:10;;;;;;;;;;;7.60;99.90;;;;;;5020113;28;19971;-71
2022/04/22 04:06:35;;;;;;;;;;;7.60;99.90;;;;;;5019123;28;19913;-71
2022/04/22 04:17:14;;;;;;;;;;;7.50;99.90;;;;;;5020212;28;19971;-71
2022/04/22 04:25:09;;;;;;;;;;;7.40;99.90;;;;;;5018767;28;19920;-71
2022/04/22 04:27:36;;;;;;;;;;;7.40;99.90;;;;;;5018759;28;19913;-70
2022/04/22 04:30:02;;;;;;;;;;;7.30;99.90;;;;;;5017823;28;19918;-70
2022/04/22 04:32:28;;;;;;;;;;;7.30;99.90;;;;;;5019420;28;19999;-70
2022/04/22 04:34:53;;;;;;;;;;;7.30;99.90;;;;;;5019596;28;20001;-70
2022/04/22 04:37:18;;;;;;;;;;;7.40;99.90;;;;;;5021209;28;20012;-70
2022/04/22 04:39:44;;;;;;;;;;;7.30;99.90;;;;;;5020286;28;20001;-69
2022/04/22 04:42:09;;;;;;;;;;;7.40;99.90;;;;;;5019935;28;19917;-70
2022/04/22 04:44:36;;;;;;;;;;;7.30;99.90;;;;;;5017502;28;19963;-70
2022/04/22 04:47:02;;;;;;;;;;;7.30;99.90;;;;;;5011584;28;20330;-70
2022/04/22 04:49:27;;;;;;;;;;;7.30;99.90;;;;;;5009344;28;20020;-70
2022/04/22 04:51:53;;;;;;;;;;;7.30;99.90;;;;;;5012430;28;19931;-70
2022/04/22 04:54:19;;;;;;;;;;;7.30;99.90;;;;;;5012647;28;20016;-72
2022/04/22 04:56:44;;;;;;;;;;;7.30;99.90;;;;;;5016214;28;19942;-72
2022/04/22 04:59:10;;;;;;;;;;;7.30;99.90;;;;;;5020678;28;19918;-72
2022/04/22 05:01:35;;;;;;;;;;;7.30;99.90;;;;;;5018990;28;19920;-72
2022/04/22 05:04:00;;;;;;;;;;;7.30;99.90;;;;;;5021218;28;19913;-74
2022/04/22 05:06:26;;;;;;;;;;;7.30;99.90;;;;;;5019499;28;20354;-73
2022/04/22 05:08:51;;;;;;;;;;;7.30;99.90;;;;;;5020559;28;19945;-74
2022/04/22 05:11:17;;;;;;;;;;;7.30;99.90;;;;;;5019128;28;19917;-73
2022/04/22 05:13:42;;;;;;;;;;;7.30;99.90;;;;;;5020076;28;19936;-72
2022/04/22 05:16:07;;;;;;;;;;;7.20;99.90;;;;;;5020823;28;19909;-72
2022/04/22 05:18:33;;;;;;;;;;;7.20;99.90;;;;;;5020666;28;20341;-72
2022/04/22 05:20:59;;;;;;;;;;;7.30;99.90;;;;;;5020103;28;19983;-71
2022/04/22 05:23:24;;;;;;;;;;;7.30;99.90;;;;;;5020211;28;19917;-72
2022/04/22 05:25:50;;;;;;;;;;;7.30;99.90;;;;;;5018505;28;19921;-67
2022/04/22 05:28:15;;;;;;;;;;;7.30;99.90;;;;;;5019646;28;19917;-76
2022/04/22 05:33:25;;;;;;;;;;;7.40;99.90;;;;;;5014921;28;19987;-78
2022/04/22 05:35:50;;;;;;;;;;;7.40;99.90;;;;;;5019157;28;19925;-78
2022/04/22 05:38:17;;;;;;;;;;;7.40;99.90;;;;;;5001874;28;19925;-78
2022/04/22 05:40:46;;;;;;;;;;;7.40;99.90;;;;;;5018653;28;20358;-78
2022/04/22 05:43:11;;;;;;;;;;;7.30;99.90;;;;;;5016709;28;19917;-78
2022/04/22 05:45:37;;;;;;;;;;;7.30;99.90;;;;;;5019067;28;20040;-78
2022/04/22 05:48:02;;;;;;;;;;;7.40;99.90;;;;;;5019334;28;19910;-78
2022/04/22 05:50:28;;;;;;;;;;;7.40;99.90;;;;;;5020157;28;19916;-78
2022/04/22 05:52:54;;;;;;;;;;;7.40;99.90;;;;;;5019635;28;19967;-78
2022/04/22 05:55:20;;;;;;;;;;;7.50;99.90;;;;;;5020083;28;19929;-78
2022/04/22 05:57:46;;;;;;;;;;;7.60;99.90;;;;;;5018041;28;19918;-79
2022/04/22 06:00:13;;;;;;;;;;;7.60;99.90;;;;;;5016577;28;19958;-78
2022/04/22 06:02:42;;;;;;;;;;;7.70;99.90;;;;;;5019467;28;19917;-79
2022/04/22 06:05:08;;;;;;;;;;;7.70;99.90;;;;;;5018690;28;19967;-78
2022/04/22 06:07:34;;;;;;;;;;;7.80;99.90;;;;;;5020265;28;19909;-78
2022/04/22 06:12:43;;;;;;;;;;;7.80;99.90;;;;;;5014254;28;19924;-70
2022/04/22 06:15:09;;;;;;;;;;;7.80;99.90;;;;;;5013207;28;19914;-74
2022/04/22 06:17:34;;;;;;;;;;;7.70;99.90;;;;;;5015959;28;19917;-72
2022/04/22 06:20:00;;;;;;;;;;;7.60;99.90;;;;;;5016372;28;19929;-72
2022/04/22 06:22:26;;;;;;;;;;;7.60;99.90;;;;;;5014786;28;19913;-71
2022/04/22 06:24:52;;;;;;;;;;;7.60;99.90;;;;;;5015796;28;19921;-72
2022/04/22 06:27:24;;;;;;;;;;;7.60;99.90;;;;;;5016032;28;19913;-71
2022/04/22 06:29:50;;;;;;;;;;;7.60;99.90;;;;;;5015329;28;19917;-70
2022/04/22 06:32:16;;;;;;;;;;;7.60;99.90;;;;;;5011464;28;19920;-73
2022/04/22 06:34:41;;;;;;;;;;;7.60;99.90;;;;;;5016043;28;19913;-74
2022/04/22 06:37:07;;;;;;;;;;;7.50;99.90;;;;;;5017161;28;19917;-74
2022/04/22 06:45:46;;;;;;;;;;;7.50;99.90;;;;;;5016344;28;19999;-74
2022/04/22 06:47:46;;;;;;;;;;;7.60;99.90;;;;;;5016403;28;20423;-73
2022/04/22 06:50:17;;;;;;;;;;;7.60;99.90;;;;;;5017985;28;19914;-72
2022/04/22 06:52:43;;;;;;;;;;;7.70;99.90;;;;;;5015207;28;19913;-72
2022/04/22 06:55:09;;;;;;;;;;;7.70;99.90;;;;;;5017234;28;19914;-72
2022/04/22 06:57:34;;;;;;;;;;;7.70;99.90;;;;;;5016187;28;19918;-71
2022/04/22 07:00:00;;;;;;;;;;;7.80;99.90;;;;;;5015477;28;19917;-72
2022/04/22 07:02:26;;;;;;;;;;;7.80;99.90;;;;;;5013687;28;20367;-72
2022/04/22 07:04:51;;;;;;;;;;;7.80;99.90;;;;;;5017683;28;19924;-74
2022/04/22 07:07:16;;;;;;;;;;;7.80;99.90;;;;;;5016069;28;20363;-74
2022/04/22 07:09:42;;;;;;;;;;;7.80;99.90;;;;;;5016805;28;19913;-77
2022/04/22 07:12:09;;;;;;;;;;;7.90;99.90;;;;;;5016967;28;19921;-81
2022/04/22 07:14:35;;;;;;;;;;;8.00;99.90;;;;;;5014482;28;19960;-77
2022/04/22 07:17:01;;;;;;;;;;;8.00;99.90;;;;;;5015598;28;19984;-75
2022/04/22 07:19:26;;;;;;;;;;;8.00;99.90;;;;;;5015669;28;20397;-76
2022/04/22 07:21:52;;;;;;;;;;;7.90;99.90;;;;;;5017167;28;20303;-77
2022/04/22 07:24:17;;;;;;;;;;;7.80;99.90;;;;;;5016969;28;19917;-76
2022/04/22 07:26:44;;;;;;;;;;;7.70;99.90;;;;;;5016464;28;19921;-77
2022/04/22 07:29:12;;;;;;;;;;;7.80;99.90;;;;;;5014423;28;20026;-76
2022/04/22 07:31:37;;;;;;;;;;;7.90;99.90;;;;;;5015724;28;19917;-79
2022/04/22 07:34:03;;;;;;;;;;;8.00;99.90;;;;;;5016018;28;19924;-77
2022/04/22 07:36:28;;;;;;;;;;;8.10;99.90;;;;;;5016497;28;20413;-73
2022/04/22 07:38:54;;;;;;;;;;;8.00;99.90;;;;;;5015404;28;19921;-76
2022/04/22 07:41:20;;;;;;;;;;;8.10;99.90;;;;;;5017301;28;19934;-74
2022/04/22 07:46:48;;;;;;;;;;;8.00;99.90;;;;;;5015381;28;19966;-76
2022/04/22 07:49:14;;;;;;;;;;;8.10;99.90;;;;;;5015244;28;19952;-78
2022/04/22 07:51:40;;;;;;;;;;;8.20;99.90;;;;;;5016620;28;19956;-78
2022/04/22 07:54:07;;;;;;;;;;;8.20;99.90;;;;;;5016594;28;19929;-78
2022/04/22 07:56:33;;;;;;;;;;;8.20;99.90;;;;;;5019791;28;20345;-79
2022/04/22 07:58:58;;;;;;;;;;;8.30;99.90;;;;;;5016872;28;19921;-79
2022/04/22 08:01:24;;;;;;;;;;;8.40;99.90;;;;;;5018142;28;19914;-77
2022/04/22 08:03:50;;;;;;;;;;;8.50;99.90;;;;;;5017693;28;19971;-73
2022/04/22 08:06:15;;;;;;;;;;;8.50;99.90;;;;;;5017896;28;19925;-72
2022/04/22 08:08:41;;;;;;;;;;;8.60;99.90;;;;;;5018858;28;20030;-73
2022/04/22 08:11:06;;;;;;;;;;;8.50;99.90;;;;;;5019760;28;20358;-71
2022/04/22 08:13:32;;;;;;;;;;;8.70;99.90;;;;;;5018372;28;19917;-73
2022/04/22 08:15:58;;;;;;;;;;;8.80;99.90;;;;;;5016533;28;19921;-71
2022/04/22 08:18:24;;;;;;;;;;;8.90;99.90;;;;;;5019571;28;19927;-69
2022/04/22 08:20:49;;;;;;;;;;;8.90;99.90;;;;;;5019497;28;19913;-68
2022/04/22 08:23:16;;;;;;;;;;;9.00;99.90;;;;;;5019122;28;19949;-69
2022/04/22 08:25:42;;;;;;;;;;;9.10;99.90;;;;;;5018817;28;20012;-68
2022/04/22 08:28:07;;;;;;;;;;;9.20;99.90;;;;;;5018393;28;20007;-68
2022/04/22 08:30:35;;;;;;;;;;;9.10;99.90;;;;;;5019179;28;20015;-67
2022/04/22 08:33:01;;;;;;;;;;;9.30;99.90;;;;;;5017891;28;19961;-67
2022/04/22 08:35:27;;;;;;;;;;;9.40;99.90;;;;;;5015979;28;19909;-68
2022/04/22 08:37:52;;;;;;;;;;;9.40;99.90;;;;;;5016054;28;20302;-68
2022/04/22 08:40:18;;;;;;;;;;;9.60;99.90;;;;;;5020122;28;20014;-77
2022/04/22 08:42:46;;;;;;;;;;;9.60;99.90;;;;;;5016657;28;19972;-76
2022/04/22 08:45:12;;;;;;;;;;;9.80;99.90;;;;;;5016653;28;19922;-75
2022/04/22 08:50:22;;;;;;;;;;;10.10;99.90;;;;;;5016367;28;19975;-72
2022/04/22 08:53:02;;;;;;;;;;;9.90;99.90;;;;;;5019288;28;19917;-71
2022/04/22 08:55:29;;;;;;;;;;;10.00;99.90;;;;;;5017663;28;20382;-76
2022/04/22 08:57:54;;;;;;;;;;;10.10;99.90;;;;;;5020177;28;19928;-75
2022/04/22 09:00:23;;;;;;;;;;;10.20;99.90;;;;;;5017842;28;19920;-73
2022/04/22 09:02:54;;;;;;;;;;;10.20;99.90;;;;;;5017480;28;19913;-75
2022/04/22 09:05:19;;;;;;;;;;;10.10;99.90;;;;;;5016503;28;20374;-74
2022/04/22 09:07:45;;;;;;;;;;;10.00;99.90;;;;;;5015424;28;19922;-73
2022/04/22 09:10:11;;;;;;;;;;;9.90;99.90;;;;;;5020571;28;19921;-75
2022/04/22 09:12:37;;;;;;;;;;;9.80;99.90;;;;;;5018185;28;19913;-73
2022/04/22 09:15:03;;;;;;;;;;;9.80;99.90;;;;;;5016863;28;20271;-72
2022/04/22 09:17:36;;;;;;;;;;;9.90;99.90;;;;;;5017091;28;19921;-72
2022/04/22 09:20:02;;;;;;;;;;;10.10;99.90;;;;;;5017650;28;19917;-71
2022/04/22 09:22:28;;;;;;;;;;;10.30;99.90;;;;;;5014533;28;19949;-73
2022/04/22 09:24:58;;;;;;;;;;;10.50;99.90;;;;;;5018051;28;19917;-72
2022/04/22 09:27:36;;;;;;;;;;;10.60;99.90;;;;;;5016857;28;20360;-76
2022/04/22 09:30:03;;;;;;;;;;;10.60;99.90;;;;;;5018369;28;19921;-75
2022/04/22 09:32:30;;;;;;;;;;;10.70;99.90;;;;;;5018407;28;19929;-77
2022/04/22 09:34:56;;;;;;;;;;;10.60;99.90;;;;;;5016191;28;19921;-76
2022/04/22 09:43:10;;;;;;;;;;;10.90;99.90;;;;;;5007558;28;20453;-74
2022/04/22 09:45:39;;;;;;;;;;;11.00;99.90;;;;;;5016415;28;19920;-74
2022/04/22 09:48:15;;;;;;;;;;;11.10;99.90;;;;;;5016788;28;19918;-74
2022/04/22 09:50:42;;;;;;;;;;;11.20;99.90;;;;;;5015753;28;19917;-75
2022/04/22 09:53:08;;;;;;;;;;;11.20;99.90;;;;;;5016509;28;19913;-75
2022/04/22 09:55:52;;;;;;;;;;;11.10;99.90;;;;;;5017468;28;19918;-73
2022/04/22 09:58:25;;;;;;;;;;;11.00;99.90;;;;;;5019706;28;19917;-73
2022/04/22 10:01:00;;;;;;;;;;;11.00;99.90;;;;;;5014465;28;19917;-74
2022/04/22 10:03:26;;;;;;;;;;;11.00;99.90;;;;;;5019943;28;19914;-71
2022/04/22 10:05:53;;;;;;;;;;;11.00;99.90;;;;;;5016097;28;19931;-73
2022/04/22 10:08:19;;;;;;;;;;;11.00;99.90;;;;;;5016295;28;19929;-74
2022/04/22 10:10:45;;;;;;;;;;;11.10;99.90;;;;;;5016650;28;19924;-75
2022/04/22 10:13:12;;;;;;;;;;;11.20;99.90;;;;;;5014805;28;19921;-74
2022/04/22 10:15:39;;;;;;;;;;;11.10;99.90;;;;;;5013522;28;19917;-81
2022/04/22 10:18:07;;;;;;;;;;;11.00;99.90;;;;;;5018593;28;19925;-81
2022/04/22 10:20:32;;;;;;;;;;;10.90;99.90;;;;;;5017766;28;19917;-81
2022/04/22 10:22:58;;;;;;;;;;;10.90;99.90;;;;;;5018205;28;19917;-78
2022/04/22 10:25:24;;;;;;;;;;;10.90;99.90;;;;;;5014903;28;20557;-78
2022/04/22 10:27:52;;;;;;;;;;;10.90;99.90;;;;;;5018241;28;19924;-78
2022/04/22 10:30:17;;;;;;;;;;;10.90;99.90;;;;;;5008234;28;20015;-82
2022/04/22 10:32:45;;;;;;;;;;;11.00;99.90;;;;;;5014076;28;19952;-83
2022/04/22 10:35:12;;;;;;;;;;;11.20;99.90;;;;;;5017494;28;19913;-83
2022/04/22 10:37:41;;;;;;;;;;;11.40;99.90;;;;;;5018862;28;19917;-83
2022/04/22 10:40:17;;;;;;;;;;;11.50;99.90;;;;;;5017679;28;19913;-83
2022/04/22 10:42:43;;;;;;;;;;;11.70;99.90;;;;;;5015260;28;19917;-83
2022/04/22 10:47:53;;;;;;;;;;;11.90;99.90;;;;;;5014336;28;19949;-73
2022/04/22 10:50:31;;;;;;;;;;;12.10;99.90;;;;;;5016723;28;19953;-72
2022/04/22 10:53:02;;;;;;;;;;;12.20;99.60;;;;;;5016526;28;19917;-66
2022/04/22 10:55:28;;;;;;;;;;;12.20;99.80;;;;;;5016731;28;20006;-68
2022/04/22 10:58:13;;;;;;;;;;;12.20;99.70;;;;;;5014731;28;20485;-69
2022/04/22 11:00:40;;;;;;;;;;;12.20;99.60;;;;;;4997598;28;19914;-69
2022/04/22 11:03:13;;;;;;;;;;;12.30;99.70;;;;;;5016109;28;19925;-67
2022/04/22 11:05:48;;;;;;;;;;;12.30;99.90;;;;;;5016975;28;19920;-70
2022/04/22 11:08:24;;;;;;;;;;;12.40;99.90;;;;;;5016662;28;19943;-68
2022/04/22 11:10:51;;;;;;;;;;;12.60;99.90;;;;;;5017097;28;20370;-69
2022/04/22 11:13:30;;;;;;;;;;;12.80;99.50;;;;;;5015390;28;19924;-70
2022/04/22 11:16:05;;;;;;;;;;;12.80;99.50;;;;;;5012014;28;20321;-69
2022/04/22 11:18:31;;;;;;;;;;;13.00;99.70;;;;;;5016869;28;19929;-64
2022/04/22 11:21:02;;;;;;;;;;;13.40;99.50;;;;;;5012967;28;20362;-66
2022/04/22 11:23:35;;;;;;;;;;;13.70;99.30;;;;;;5017164;28;19919;-70
2022/04/22 11:26:01;;;;;;;;;;;14.10;98.50;;;;;;5015074;28;19967;-69
2022/04/22 11:28:28;;;;;;;;;;;14.30;98.20;;;;;;5017309;28;19923;-69
2022/04/22 11:30:53;;;;;;;;;;;14.40;97.80;;;;;;5017320;28;19918;-69
2022/04/22 11:33:23;;;;;;;;;;;14.20;98.00;;;;;;5020439;28;20423;-68
2022/04/22 11:35:53;;;;;;;;;;;14.10;97.90;;;;;;5018183;28;20429;-66
2022/04/22 11:38:19;;;;;;;;;;;14.00;98.20;;;;;;5021524;28;19971;-67
2022/04/22 11:40:47;;;;;;;;;;;14.00;98.20;;;;;;5019302;28;19917;-68
2022/04/22 11:43:16;;;;;;;;;;;13.90;98.20;;;;;;5020595;28;20370;-68
2022/04/22 11:45:42;;;;;;;;;;;13.70;98.40;;;;;;5020742;28;19987;-68
2022/04/22 11:48:11;;;;;;;;;;;13.70;98.60;;;;;;5020939;28;20420;-68
2022/04/22 11:50:42;;;;;;;;;;;13.70;98.80;;;;;;5018149;28;20263;-67
2022/04/22 11:53:15;;;;;;;;;;;13.70;98.80;;;;;;5018987;28;20401;-66
2022/04/22 11:55:42;;;;;;;;;;;13.80;98.30;;;;;;5019831;28;19917;-66
2022/04/22 11:58:11;;;;;;;;;;;13.80;98.30;;;;;;5020985;28;20357;-66
2022/04/22 12:06:13;;;;;;;;;;;14.10;98.30;;;;;;5021983;28;20162;-67
2022/04/22 12:08:57;;;;;;;;;;;14.30;97.90;;;;;;5020288;28;20338;-68
2022/04/22 12:11:23;;;;;;;;;;;14.60;97.90;;;;;;5018427;28;19928;-69
2022/04/22 12:13:49;;;;;;;;;;;14.80;97.20;;;;;;5019200;28;19996;-70
2022/04/22 12:16:22;;;;;;;;;;;14.90;96.50;;;;;;5019331;28;20004;-69
2022/04/22 12:18:48;;;;;;;;;;;14.70;96.80;;;;;;5011751;28;19922;-68
2022/04/22 12:21:14;;;;;;;;;;;14.70;97.00;;;;;;5021045;28;20272;-69
2022/04/22 12:23:41;;;;;;;;;;;14.70;96.50;;;;;;5018052;28;19920;-68
2022/04/22 12:26:14;;;;;;;;;;;14.70;96.50;;;;;;5018972;28;19953;-68
2022/04/22 12:29:12;;;;;;;;;;;14.60;96.50;;;;;;5019808;28;19914;-70
2022/04/22 12:31:38;;;;;;;;;;;14.60;97.00;;;;;;4956102;28;19919;-67
2022/04/22 12:34:05;;;;;;;;;;;14.80;97.00;;;;;;5018551;28;19913;-68
2022/04/22 12:36:33;;;;;;;;;;;15.00;96.70;;;;;;5020966;28;19921;-68
2022/04/22 12:38:59;;;;;;;;;;;15.20;95.70;;;;;;5018916;28;20377;-68
2022/04/22 12:41:25;;;;;;;;;;;15.20;95.60;;;;;;5017029;28;19922;-69
2022/04/22 12:43:52;;;;;;;;;;;15.40;95.40;;;;;;5017386;28;20376;-69
2022/04/22 12:52:08;;;;;;;;;;;15.90;93.30;;;;;;5016392;28;19967;-71
2022/04/22 12:54:34;;;;;;;;;;;16.00;92.30;;;;;;5016212;28;19952;-72
2022/04/22 12:57:00;;;;;;;;;;;15.80;92.50;;;;;;5016135;28;19963;-69
2022/04/22 12:59:44;;;;;;;;;;;15.70;93.00;;;;;;5018039;28;20432;-71
2022/04/22 13:02:11;;;;;;;;;;;15.70;93.20;;;;;;5014678;28;19917;-69
2022/04/22 13:04:56;;;;;;;;;;;15.70;93.10;;;;;;5015230;28;20325;-69
2022/04/22 13:07:22;;;;;;;;;;;15.70;93.10;;;;;;5018363;28;20294;-68
2022/04/22 13:09:48;;;;;;;;;;;15.80;91.60;;;;;;5019704;28;19959;-68
2022/04/22 13:12:13;;;;;;;;;;;15.70;91.70;;;;;;5017582;28;19917;-67
2022/04/22 13:14:39;;;;;;;;;;;15.60;92.20;;;;;;5020574;28;19913;-68
2022/04/22 13:17:05;;;;;;;;;;;15.50;92.30;;;;;;5023429;28;19917;-68
2022/04/22 13:19:30;;;;;;;;;;;15.50;92.60;;;;;;5012699;28;20417;-68
2022/04/22 13:21:57;;;;;;;;;;;15.60;92.70;;;;;;5009894;28;20352;-68
2022/04/22 13:24:23;;;;;;;;;;;15.50;92.70;;;;;;5013838;28;20481;-69
2022/04/22 13:26:48;;;;;;;;;;;15.40;92.70;;;;;;5017403;28;19913;-68
2022/04/22 13:29:14;;;;;;;;;;;15.20;92.90;;;;;;5019303;28;19963;-68
2022/04/22 13:31:39;;;;;;;;;;;15.10;93.20;;;;;;5017616;28;19913;-68
2022/04/22 13:34:05;;;;;;;;;;;15.00;93.50;;;;;;5016793;28;20335;-68
2022/04/22 13:36:31;;;;;;;;;;;14.90;93.60;;;;;;5019316;28;19917;-66
2022/04/22 13:38:56;;;;;;;;;;;14.80;93.90;;;;;;5018993;28;19921;-66
2022/04/22 13:41:22;;;;;;;;;;;14.70;94.30;;;;;;5017255;28;19917;-65
2022/04/22 13:43:47;;;;;;;;;;;14.70;94.60;;;;;;5017506;28;20187;-65
2022/04/22 13:52:21;;;;;;;;;;;14.50;95.40;;;;;;5016603;28;20361;-65
2022/04/22 13:54:45;;;;;;;;;;;14.30;96.00;;;;;;5017783;28;19924;-65
2022/04/22 13:57:10;;;;;;;;;;;14.30;96.00;;;;;;5012097;28;19918;-66
2022/04/22 13:59:36;;;;;;;;;;;14.20;95.90;;;;;;5015183;28;19968;-65
2022/04/22 14:02:02;;;;;;;;;;;14.20;95.90;;;;;;5018109;28;19963;-65
2022/04/22 14:04:27;;;;;;;;;;;14.20;95.60;;;;;;5013695;28;20001;-65
2022/04/22 14:06:53;;;;;;;;;;;14.20;95.70;;;;;;5015950;28;20004;-68
2022/04/22 14:09:18;;;;;;;;;;;14.20;95.60;;;;;;5017774;28;19917;-66
2022/04/22 14:11:45;;;;;;;;;;;14.20;95.60;;;;;;5014747;28;19989;-66
2022/04/22 14:14:10;;;;;;;;;;;14.20;95.70;;;;;;5014756;28;20286;-69
2022/04/22 14:16:36;;;;;;;;;;;14.30;95.70;;;;;;5015598;28;19913;-72
2022/04/22 14:19:02;;;;;;;;;;;14.40;95.50;;;;;;5015642;28;19932;-65
2022/04/22 14:21:32;;;;;;;;;;;14.50;95.40;;;;;;5018283;28;19913;-65
2022/04/22 14:23:58;;;;;;;;;;;14.60;95.50;;;;;;5017301;28;19917;-65
2022/04/22 14:26:23;;;;;;;;;;;14.60;95.20;;;;;;5017938;28;19924;-65
2022/04/22 14:28:48;;;;;;;;;;;14.70;95.00;;;;;;5018222;28;19913;-65
2022/04/22 14:31:14;;;;;;;;;;;14.60;94.90;;;;;;5018104;28;19924;-65
2022/04/22 14:33:40;;;;;;;;;;;14.60;95.10;;;;;;5018607;28;19910;-65
2022/04/22 14:36:06;;;;;;;;;;;14.70;95.10;;;;;;5017715;28;20385;-65
2022/04/22 14:38:31;;;;;;;;;;;14.70;95.00;;;;;;5018653;28;19917;-65
2022/04/22 14:40:57;;;;;;;;;;;14.80;95.10;;;;;;5016014;28;19921;-65
2022/04/22 14:43:22;;;;;;;;;;;14.80;95.30;;;;;;5019141;28;19921;-65
2022/04/22 14:45:48;;;;;;;;;;;14.80;95.20;;;;;;5018397;28;19917;-65
2022/04/22 14:48:13;;;;;;;;;;;14.80;95.00;;;;;;5019485;28;19909;-65
2022/04/22 14:50:40;;;;;;;;;;;14.70;95.10;;;;;;5019235;28;19913;-65
2022/04/22 14:53:06;;;;;;;;;;;14.70;95.30;;;;;;5018319;28;19921;-65
2022/04/22 14:55:31;;;;;;;;;;;14.80;95.30;;;;;;5018917;28;19924;-65
2022/04/22 14:57:57;;;;;;;;;;;14.80;95.20;;;;;;5016320;28;20366;-65
2022/04/22 15:00:22;;;;;;;;;;;14.80;95.40;;;;;;5019275;28;20285;-65
2022/04/22 15:02:48;;;;;;;;;;;14.80;95.20;;;;;;5018537;28;19948;-65
2022/04/22 15:05:13;;;;;;;;;;;14.90;95.10;;;;;;5021149;28;20011;-65
2022/04/22 15:07:39;;;;;;;;;;;14.80;95.10;;;;;;5024299;28;19914;-65
2022/04/22 15:10:05;;;;;;;;;;;14.70;95.40;;;;;;5025547;28;20285;-65
2022/04/22 15:12:30;;;;;;;;;;;14.70;95.40;;;;;;5023525;28;19920;-65
2022/04/22 15:14:56;;;;;;;;;;;14.60;95.50;;;;;;5025161;28;19927;-65
2022/04/22 15:24:09;;;;;;;;;;;14.60;95.50;;;;;;5025085;28;19944;-65
2022/04/22 15:25:36;;;;;;;;;;;14.80;95.80;;;;;;5019906;28;19940;-64
2022/04/22 15:28:02;;;;;;;;;;;14.80;95.50;;;;;;5020903;28;19920;-64
2022/04/22 15:30:57;;;;;;;;;;;14.70;95.50;;;;;;5022831;28;19968;-64
2022/04/22 15:33:22;;;;;;;;;;;14.70;95.60;;;;;;4995452;28;19921;-64
2022/04/22 15:35:47;;;;;;;;;;;14.70;95.60;;;;;;5022778;28;20290;-64
2022/04/22 15:38:13;;;;;;;;;;;14.70;95.70;;;;;;5023962;28;19917;-64